createdAt,value
2023-01-25T00:01:24.759Z,3.65
2023-01-25T00:03:53.839Z,3.50
2023-01-25T00:06:23.408Z,3.55
2023-01-25T00:08:51.551Z,3.62
2023-01-25T00:11:20.476Z,3.52
2023-01-25T00:13:48.605Z,3.45
2023-01-25T00:16:16.867Z,3.64
2023-01-25T00:18:45.012Z,3.62
2023-01-25T00:21:14.134Z,3.65
2023-01-25T00:23:43.922Z,3.63
2023-01-25T00:26:12.112Z,3.62
2023-01-25T00:28:40.839Z,3.63
2023-01-25T00:31:12.842Z,3.56
2023-01-25T00:33:45.727Z,3.51
2023-01-25T00:36:33.682Z,3.46
2023-01-25T00:39:03.219Z,3.44
2023-01-25T00:41:31.553Z,3.43
2023-01-25T00:43:59.835Z,3.06
2023-01-25T00:46:27.905Z,3.24
2023-01-25T00:48:56.430Z,3.19
2023-01-25T00:51:25.550Z,2.85
2023-01-25T00:53:53.739Z,2.13
2023-01-25T00:56:23.289Z,2.96
2023-01-25T00:58:51.503Z,2.97
2023-01-25T01:01:19.721Z,2.48
2023-01-25T01:03:47.906Z,1.75
2023-01-25T01:06:16.022Z,2.82
2023-01-25T01:08:44.440Z,2.70
2023-01-25T01:11:14.350Z,2.49
2023-01-25T01:13:43.984Z,2.63
2023-01-25T01:16:14.387Z,2.62
2023-01-25T01:18:44.198Z,2.44
2023-01-25T01:21:13.675Z,2.49
2023-01-25T01:23:42.517Z,1.59
2023-01-25T01:26:14.499Z,2.36
2023-01-25T01:28:45.123Z,2.43
2023-01-25T01:31:14.884Z,2.49
2023-01-25T01:33:43.042Z,2.47
2023-01-25T01:36:12.838Z,2.17
2023-01-25T01:38:41.394Z,2.28
2023-01-25T01:41:10.221Z,2.21
2023-01-25T01:43:38.949Z,2.58
2023-01-25T01:46:13.976Z,2.46
2023-01-25T01:48:47.016Z,2.39
2023-01-25T01:51:20.665Z,2.45
2023-01-25T01:53:52.237Z,1.60
2023-01-25T01:56:28.209Z,2.53
2023-01-25T01:58:57.486Z,2.70
2023-01-25T02:01:27.388Z,2.68
2023-01-25T02:03:56.650Z,2.78
2023-01-25T02:06:35.861Z,2.53
2023-01-25T02:09:04.551Z,1.82
2023-01-25T02:11:34.510Z,2.61
2023-01-25T02:14:04.002Z,2.44
2023-01-25T02:16:33.679Z,2.72
2023-01-25T02:19:03.808Z,2.74
2023-01-25T02:21:40.031Z,2.84
2023-01-25T02:24:13.830Z,2.83
2023-01-25T02:26:44.001Z,2.91
2023-01-25T02:29:12.743Z,2.87
2023-01-25T02:31:40.923Z,2.78
2023-01-25T02:34:09.372Z,2.78
2023-01-25T02:36:37.553Z,2.64
2023-01-25T02:39:08.952Z,2.63
2023-01-25T02:41:39.972Z,2.54
2023-01-25T02:44:12.804Z,2.64
2023-01-25T02:46:42.797Z,2.66
2023-01-25T02:49:11.878Z,2.66
2023-01-25T02:51:41.927Z,2.48
2023-01-25T02:54:12.750Z,2.40
2023-01-25T02:56:41.975Z,2.67
2023-01-25T02:59:13.524Z,1.59
2023-01-25T03:01:43.497Z,2.65
2023-01-25T03:04:12.144Z,2.37
2023-01-25T03:06:41.613Z,2.74
2023-01-25T03:09:11.494Z,2.76
2023-01-25T03:11:39.767Z,2.27
2023-01-25T03:14:07.995Z,2.65
2023-01-25T03:16:37.566Z,2.63
2023-01-25T03:19:05.825Z,2.65
2023-01-25T03:21:33.917Z,2.51
2023-01-25T03:24:03.314Z,2.64
2023-01-25T03:26:31.560Z,2.63
2023-01-25T03:28:59.728Z,2.51
2023-01-25T03:31:28.074Z,2.59
2023-01-25T03:33:57.687Z,2.24
2023-01-25T03:36:25.869Z,2.48
2023-01-25T03:38:54.017Z,2.62
2023-01-25T03:41:22.225Z,2.53
2023-01-25T03:43:50.367Z,2.58
2023-01-25T03:46:18.468Z,2.63
2023-01-25T03:48:47.127Z,2.66
2023-01-25T03:51:16.727Z,2.57
2023-01-25T03:53:44.895Z,2.59
2023-01-25T03:56:17.690Z,2.62
2023-01-25T03:58:45.827Z,2.48
2023-01-25T04:01:14.105Z,2.54
2023-01-25T04:03:42.271Z,1.76
2023-01-25T04:06:10.713Z,1.69
2023-01-25T04:08:40.477Z,2.53
2023-01-25T04:11:10.679Z,2.55
2023-01-25T04:13:39.837Z,2.48
2023-01-25T04:16:11.869Z,2.32
2023-01-25T04:18:40.808Z,2.27
2023-01-25T04:21:08.996Z,1.99
2023-01-25T04:23:37.073Z,2.17
2023-01-25T04:26:09.480Z,2.19
2023-01-25T04:28:37.633Z,2.16
2023-01-25T04:31:06.331Z,2.31
2023-01-25T04:33:35.287Z,2.31
2023-01-25T04:36:03.654Z,2.33
2023-01-25T04:38:31.746Z,2.08
2023-01-25T04:40:59.952Z,2.14
2023-01-25T04:43:29.587Z,2.38
2023-01-25T04:45:57.847Z,2.45
2023-01-25T04:48:26.018Z,2.39
2023-01-25T04:50:54.208Z,2.51
2023-01-25T04:53:22.408Z,2.51
2023-01-25T04:55:50.941Z,2.51
2023-01-25T04:58:19.668Z,1.73
2023-01-25T05:00:49.256Z,2.49
2023-01-25T05:03:17.408Z,2.52
2023-01-25T05:05:48.286Z,2.54
2023-01-25T05:08:16.424Z,2.56
2023-01-25T05:10:44.733Z,2.19
2023-01-25T05:13:12.896Z,2.53
2023-01-25T05:15:41.059Z,2.48
2023-01-25T05:18:10.724Z,2.47
2023-01-25T05:20:38.925Z,2.09
2023-01-25T05:23:07.104Z,2.52
2023-01-25T05:25:52.415Z,1.69
2023-01-25T05:28:20.544Z,2.52
2023-01-25T05:30:48.698Z,2.46
2023-01-25T05:33:18.235Z,2.12
2023-01-25T05:35:46.357Z,2.68
2023-01-25T05:38:14.453Z,2.76
2023-01-25T05:40:42.765Z,2.74
2023-01-25T05:43:11.140Z,2.54
2023-01-25T05:45:40.401Z,2.53
2023-01-25T05:48:08.659Z,2.49
2023-01-25T05:50:38.219Z,2.54
2023-01-25T05:53:06.314Z,2.54
2023-01-25T05:55:36.866Z,2.46
2023-01-25T05:58:05.025Z,2.64
2023-01-25T06:00:33.300Z,2.49
2023-01-25T06:03:02.445Z,2.59
2023-01-25T06:05:30.863Z,2.74
2023-01-25T06:08:00.931Z,2.72
2023-01-25T06:10:29.083Z,2.74
2023-01-25T06:13:00.364Z,2.76
2023-01-25T06:15:28.550Z,2.67
2023-01-25T06:17:57.235Z,2.61
2023-01-25T06:20:25.496Z,2.30
2023-01-25T06:22:54.131Z,2.48
2023-01-25T06:25:23.705Z,2.42
2023-01-25T06:27:51.921Z,2.31
2023-01-25T06:30:20.124Z,2.29
2023-01-25T06:32:48.285Z,2.25
2023-01-25T06:35:16.461Z,2.24
2023-01-25T06:37:44.728Z,2.38
2023-01-25T06:40:13.640Z,2.42
2023-01-25T06:42:43.487Z,2.43
2023-01-25T06:45:12.427Z,2.42
2023-01-25T06:47:41.373Z,2.44
2023-01-25T06:50:10.936Z,2.45
2023-01-25T06:52:39.097Z,2.46
2023-01-25T06:55:12.955Z,2.42
2023-01-25T06:57:42.474Z,2.48
2023-01-25T07:00:11.995Z,2.37
2023-01-25T07:02:40.221Z,2.34
2023-01-25T07:05:10.770Z,2.47
2023-01-25T07:07:39.137Z,2.38
2023-01-25T07:10:08.226Z,2.23
2023-01-25T07:12:37.108Z,2.36
2023-01-25T07:15:08.164Z,2.30
2023-01-25T07:17:36.513Z,2.31
2023-01-25T07:20:04.770Z,2.36
2023-01-25T07:22:32.943Z,2.35
2023-01-25T07:25:02.279Z,2.27
2023-01-25T07:27:33.914Z,2.37
2023-01-25T07:30:02.012Z,2.42
2023-01-25T07:32:31.618Z,2.39
2023-01-25T07:34:59.713Z,2.52
2023-01-25T07:37:28.254Z,2.46
2023-01-25T07:39:58.321Z,2.46
2023-01-25T07:42:26.562Z,2.36
2023-01-25T07:44:54.695Z,2.25
2023-01-25T07:47:22.934Z,2.41
2023-01-25T07:49:52.520Z,2.37
2023-01-25T07:52:20.649Z,2.05
2023-01-25T07:54:50.074Z,2.31
2023-01-25T07:57:18.228Z,2.25
2023-01-25T07:59:46.421Z,2.16
2023-01-25T08:02:14.540Z,2.26
2023-01-25T08:04:42.762Z,2.32
2023-01-25T08:07:12.755Z,2.46
2023-01-25T08:09:41.560Z,2.40
2023-01-25T08:12:09.979Z,2.56
2023-01-25T08:14:38.515Z,2.64
2023-01-25T08:17:06.642Z,2.79
2023-01-25T08:19:34.760Z,2.60
2023-01-25T08:22:02.944Z,2.69
2023-01-25T08:24:32.565Z,2.97
2023-01-25T08:27:00.863Z,2.83
2023-01-25T08:29:29.119Z,2.84
2023-01-25T08:31:57.344Z,2.96
2023-01-25T08:34:25.736Z,3.09
2023-01-25T08:36:53.861Z,3.10
2023-01-25T08:39:22.064Z,2.95
2023-01-25T08:41:51.663Z,2.09
2023-01-25T08:44:22.472Z,2.70
2023-01-25T08:46:50.793Z,3.15
2023-01-25T08:49:19.030Z,3.27
2023-01-25T08:51:48.276Z,3.28
2023-01-25T08:54:16.452Z,3.25
2023-01-25T08:56:44.609Z,3.35
2023-01-25T08:59:14.767Z,3.45
2023-01-25T09:01:42.940Z,3.46
2023-01-25T09:04:11.101Z,3.46
2023-01-25T09:06:39.309Z,3.42
2023-01-25T09:09:08.642Z,3.41
2023-01-25T09:11:38.321Z,3.53
2023-01-25T09:14:06.514Z,3.61
2023-01-25T09:16:37.007Z,2.97
2023-01-25T09:19:06.766Z,3.71
2023-01-25T09:21:35.971Z,3.49
2023-01-25T09:24:05.885Z,3.56
2023-01-25T09:26:35.989Z,3.83
2023-01-25T09:29:04.498Z,3.93
2023-01-25T09:31:32.792Z,3.97
2023-01-25T09:34:02.404Z,4.01
2023-01-25T09:36:30.565Z,3.96
2023-01-25T09:38:58.736Z,4.11
2023-01-25T09:41:38.424Z,4.13
2023-01-25T09:44:31.453Z,4.17
2023-01-25T09:47:03.037Z,4.18
2023-01-25T09:49:50.820Z,4.23
2023-01-25T09:52:48.358Z,4.26
2023-01-25T09:55:20.407Z,4.31
2023-01-25T09:57:51.084Z,4.37
2023-01-25T10:00:25.629Z,4.29
2023-01-25T10:02:58.644Z,4.33
2023-01-25T10:05:34.399Z,4.33
2023-01-25T10:08:07.482Z,4.40
2023-01-25T10:10:39.482Z,4.36
2023-01-25T10:13:12.766Z,4.09
2023-01-25T10:15:45.348Z,4.35
2023-01-25T10:18:23.197Z,4.32
2023-01-25T10:20:58.501Z,4.22
2023-01-25T10:23:43.553Z,4.32
2023-01-25T10:26:16.078Z,4.31
2023-01-25T10:28:49.089Z,4.28
2023-01-25T10:31:20.198Z,4.29
2023-01-25T10:33:49.973Z,4.31
2023-01-25T10:36:24.800Z,4.20
2023-01-25T10:38:59.249Z,4.40
2023-01-25T10:41:35.585Z,4.35
2023-01-25T10:44:21.189Z,4.47
2023-01-25T10:46:55.928Z,4.36
2023-01-25T10:49:28.793Z,4.42
2023-01-25T10:51:58.538Z,4.44
2023-01-25T10:54:28.201Z,4.25
2023-01-25T10:56:58.666Z,4.49
2023-01-25T10:59:29.930Z,4.59
2023-01-25T11:02:02.635Z,4.55
2023-01-25T11:04:33.717Z,4.42
2023-01-25T11:07:05.140Z,4.26
2023-01-25T11:09:38.959Z,4.44
2023-01-25T11:12:18.529Z,4.43
2023-01-25T11:14:49.845Z,4.41
2023-01-25T11:17:27.363Z,4.41
2023-01-25T11:20:19.631Z,4.24
2023-01-25T11:22:53.507Z,3.75
2023-01-25T11:25:30.800Z,4.33
2023-01-25T11:28:17.877Z,4.30
2023-01-25T11:30:47.229Z,4.28
2023-01-25T11:33:18.210Z,3.94
2023-01-25T11:36:01.556Z,4.31
2023-01-25T11:38:31.823Z,4.30
2023-01-25T11:41:11.438Z,4.30
2023-01-25T11:43:58.800Z,4.25
2023-01-25T11:46:40.504Z,4.24
2023-01-25T11:49:46.857Z,4.22
2023-01-25T11:52:28.919Z,4.15
2023-01-25T11:55:07.883Z,4.22
2023-01-25T11:57:59.687Z,4.02
2023-01-25T12:00:43.953Z,3.70
2023-01-25T12:03:48.161Z,4.24
2023-01-25T12:06:23.305Z,4.02
2023-01-25T12:09:09.609Z,4.01
2023-01-25T12:11:54.049Z,4.29
2023-01-25T12:14:33.908Z,4.18
2023-01-25T12:17:22.142Z,4.25
2023-01-25T12:20:23.083Z,4.16
2023-01-25T12:23:06.219Z,4.19
2023-01-25T12:25:46.263Z,3.29
2023-01-25T12:28:22.196Z,4.24
2023-01-25T12:30:56.795Z,4.02
2023-01-25T12:33:30.778Z,4.12
2023-01-25T12:36:05.568Z,4.13
2023-01-25T12:38:40.215Z,4.22
2023-01-25T12:41:18.201Z,4.20
2023-01-25T12:43:52.775Z,4.26
2023-01-25T12:46:29.626Z,3.69
2023-01-25T12:49:02.604Z,4.14
2023-01-25T12:51:36.874Z,4.15
2023-01-25T12:54:15.418Z,4.22
2023-01-25T12:56:50.252Z,4.12
2023-01-25T12:59:28.605Z,3.93
2023-01-25T13:02:03.965Z,3.99
2023-01-25T13:04:50.596Z,3.54
2023-01-25T13:07:26.753Z,4.01
2023-01-25T13:10:00.757Z,3.70
2023-01-25T13:12:29.086Z,4.16
2023-01-25T13:14:58.755Z,3.56
2023-01-25T13:17:35.522Z,4.13
2023-01-25T13:20:26.423Z,4.01
2023-01-25T13:22:58.965Z,3.48
2023-01-25T13:25:27.718Z,3.97
2023-01-25T13:28:42.376Z,3.90
2023-01-25T13:31:46.320Z,3.78
2023-01-25T13:34:59.601Z,3.49
2023-01-25T13:37:30.296Z,3.89
2023-01-25T13:40:06.428Z,4.04
2023-01-25T13:42:36.423Z,4.05
2023-01-25T13:45:14.387Z,4.09
2023-01-25T13:47:46.620Z,4.09
2023-01-25T13:50:21.823Z,3.52
2023-01-25T13:52:59.894Z,3.98
2023-01-25T13:55:28.407Z,3.93
2023-01-25T13:58:10.675Z,3.89
2023-01-25T14:00:39.035Z,3.96
2023-01-25T14:03:08.643Z,3.94
2023-01-25T14:05:37.219Z,3.95
2023-01-25T14:08:05.611Z,3.77
2023-01-25T14:10:33.857Z,3.59
2023-01-25T14:13:03.499Z,3.11
2023-01-25T14:15:34.052Z,3.43
2023-01-25T14:18:12.566Z,3.47
2023-01-25T14:20:41.155Z,3.76
2023-01-25T14:23:22.827Z,3.61
2023-01-25T14:25:51.336Z,3.61
2023-01-25T14:28:20.162Z,3.77
2023-01-25T14:30:53.270Z,3.53
2023-01-25T14:33:26.710Z,3.79
2023-01-25T14:36:01.668Z,3.85
2023-01-25T14:38:36.679Z,3.45
2023-01-25T14:41:18.164Z,3.57
2023-01-25T14:43:49.249Z,3.53
2023-01-25T14:46:22.720Z,3.33
2023-01-25T14:48:53.169Z,3.56
2023-01-25T14:51:28.593Z,3.21
2023-01-25T14:54:02.942Z,3.09
2023-01-25T14:56:38.483Z,3.43
2023-01-25T14:59:07.936Z,3.51
2023-01-25T15:01:40.366Z,3.52
2023-01-25T15:04:14.471Z,3.44
2023-01-25T15:06:47.671Z,3.40
2023-01-25T15:09:36.737Z,3.37
2023-01-25T15:12:07.640Z,3.49
2023-01-25T15:14:49.535Z,3.49
2023-01-25T15:17:43.216Z,3.59
2023-01-25T15:20:35.359Z,3.22
2023-01-25T15:23:13.573Z,3.41
2023-01-25T15:25:50.820Z,3.41
2023-01-25T15:28:19.054Z,3.40
2023-01-25T15:30:47.627Z,3.34
2023-01-25T15:33:22.368Z,3.30
2023-01-25T15:35:52.758Z,3.24
2023-01-25T15:38:21.993Z,3.30
2023-01-25T15:40:50.438Z,3.29
2023-01-25T15:43:20.258Z,3.26
2023-01-25T15:45:50.309Z,3.25
2023-01-25T15:48:24.436Z,3.05
2023-01-25T15:50:55.591Z,3.13
2023-01-25T15:53:23.778Z,3.11
2023-01-25T15:55:56.004Z,3.29
2023-01-25T15:58:27.871Z,3.27
2023-01-25T16:00:56.199Z,3.20
2023-01-25T16:03:24.339Z,3.07
2023-01-25T16:05:57.496Z,3.02
2023-01-25T16:08:25.890Z,3.05
2023-01-25T16:10:54.047Z,3.15
2023-01-25T16:13:24.046Z,3.15
2023-01-25T16:15:54.599Z,3.06
2023-01-25T16:18:22.934Z,2.97
2023-01-25T16:20:51.668Z,2.98
2023-01-25T16:23:21.401Z,2.82
2023-01-25T16:25:50.228Z,3.15
2023-01-25T16:28:18.579Z,2.99
2023-01-25T16:30:46.732Z,3.03
2023-01-25T16:33:15.084Z,3.08
2023-01-25T16:35:43.257Z,2.82
2023-01-25T16:38:13.201Z,2.92
2023-01-25T16:40:42.835Z,2.80
2023-01-25T16:43:11.103Z,2.87
2023-01-25T16:45:39.873Z,2.97
2023-01-25T16:48:08.501Z,2.97
2023-01-25T16:50:36.709Z,2.92
2023-01-25T16:53:04.870Z,2.96
2023-01-25T16:55:32.972Z,2.87
2023-01-25T16:58:02.480Z,2.89
2023-01-25T17:00:30.585Z,2.55
2023-01-25T17:03:00.083Z,2.86
2023-01-25T17:05:34.234Z,2.90
2023-01-25T17:08:02.522Z,2.75
2023-01-25T17:10:34.804Z,2.83
2023-01-25T17:13:06.030Z,2.79
2023-01-25T17:15:35.374Z,2.70
2023-01-25T17:18:03.506Z,2.73
2023-01-25T17:20:31.684Z,2.52
2023-01-25T17:22:59.853Z,2.65
2023-01-25T17:25:28.163Z,2.63
2023-01-25T17:27:56.313Z,2.61
2023-01-25T17:30:25.889Z,2.61
2023-01-25T17:32:54.085Z,2.54
2023-01-25T17:35:22.210Z,2.33
2023-01-25T17:37:50.400Z,2.38
2023-01-25T17:40:18.911Z,2.39
2023-01-25T17:42:47.001Z,2.46
2023-01-25T17:45:15.106Z,2.07
2023-01-25T17:47:44.732Z,2.21
2023-01-25T17:50:14.286Z,2.32
2023-01-25T17:52:42.369Z,2.32
2023-01-25T17:55:10.907Z,2.33
2023-01-25T17:57:39.089Z,2.24
2023-01-25T18:00:11.839Z,2.36
2023-01-25T18:02:40.434Z,2.24
2023-01-25T18:05:10.609Z,1.96
2023-01-25T18:07:39.065Z,2.05
2023-01-25T18:10:08.877Z,2.37
2023-01-25T18:12:37.602Z,2.23
2023-01-25T18:15:06.816Z,2.19
2023-01-25T18:17:35.864Z,1.94
2023-01-25T18:20:06.065Z,2.23
2023-01-25T18:22:35.742Z,2.20
2023-01-25T18:25:04.233Z,2.17
2023-01-25T18:27:32.656Z,2.05
2023-01-25T18:30:03.034Z,2.17
2023-01-25T18:32:32.954Z,2.19
2023-01-25T18:35:01.161Z,2.19
2023-01-25T18:37:33.556Z,2.13
2023-01-25T18:40:03.119Z,2.20
2023-01-25T18:42:31.295Z,2.16
2023-01-25T18:44:59.571Z,2.08
2023-01-25T18:47:27.722Z,1.98
2023-01-25T18:49:56.008Z,2.02
2023-01-25T18:52:25.240Z,2.12
2023-01-25T18:54:53.567Z,2.16
2023-01-25T18:57:23.233Z,1.95
2023-01-25T18:59:51.517Z,2.16
2023-01-25T19:02:20.290Z,1.96
2023-01-25T19:04:48.464Z,1.33
2023-01-25T19:07:16.745Z,2.21
2023-01-25T19:09:44.993Z,2.05
2023-01-25T19:12:13.223Z,1.40
2023-01-25T19:14:42.855Z,2.20
2023-01-25T19:17:11.133Z,2.35
2023-01-25T19:19:39.422Z,2.14
2023-01-25T19:22:07.885Z,2.36
2023-01-25T19:24:36.164Z,2.28
2023-01-25T19:27:04.689Z,2.40
2023-01-25T19:29:33.044Z,2.20
2023-01-25T19:32:02.725Z,2.16
2023-01-25T19:34:30.910Z,2.24
2023-01-25T19:36:59.128Z,1.87
2023-01-25T19:39:27.368Z,2.20
2023-01-25T19:41:55.554Z,2.09
2023-01-25T19:44:24.995Z,2.11
2023-01-25T19:46:53.152Z,2.20
2023-01-25T19:49:23.676Z,2.22
2023-01-25T19:51:53.999Z,2.05
2023-01-25T19:54:24.327Z,2.01
2023-01-25T19:56:52.918Z,2.11
2023-01-25T19:59:24.877Z,1.94
2023-01-25T20:01:53.757Z,2.02
2023-01-25T20:04:25.183Z,2.26
2023-01-25T20:06:53.576Z,2.34
2023-01-25T20:09:25.085Z,2.34
2023-01-25T20:11:55.621Z,1.71
2023-01-25T20:14:23.820Z,2.12
2023-01-25T20:16:52.920Z,1.91
2023-01-25T20:19:22.662Z,2.00
2023-01-25T20:21:50.955Z,2.20
2023-01-25T20:24:19.418Z,2.33
2023-01-25T20:26:47.735Z,2.41
2023-01-25T20:29:16.131Z,2.29
2023-01-25T20:31:45.795Z,2.36
2023-01-25T20:34:15.510Z,2.24
2023-01-25T20:36:46.807Z,2.18
2023-01-25T20:39:16.869Z,2.03
2023-01-25T20:41:45.298Z,1.90
2023-01-25T20:44:15.388Z,2.12
2023-01-25T20:46:44.163Z,2.33
2023-01-25T20:49:15.755Z,2.32
2023-01-25T20:51:45.937Z,2.24
2023-01-25T20:54:14.636Z,2.30
2023-01-25T20:56:43.174Z,2.39
2023-01-25T20:59:11.555Z,2.37
2023-01-25T21:01:40.209Z,2.39
2023-01-25T21:04:09.817Z,2.41
2023-01-25T21:06:38.875Z,2.46
2023-01-25T21:09:08.684Z,2.60
2023-01-25T21:11:37.051Z,2.10
2023-01-25T21:14:05.423Z,2.37
2023-01-25T21:16:33.712Z,2.59
2023-01-25T21:19:06.475Z,2.49
2023-01-25T21:21:35.470Z,2.46
2023-01-25T21:24:05.526Z,2.13
2023-01-25T21:26:37.335Z,2.17
2023-01-25T21:29:06.722Z,2.27
2023-01-25T21:31:37.405Z,2.21
2023-01-25T21:34:07.011Z,2.14
2023-01-25T21:36:35.182Z,2.42
2023-01-25T21:39:03.506Z,2.54
2023-01-25T21:41:34.716Z,2.37
2023-01-25T21:44:20.780Z,2.17
2023-01-25T21:47:16.359Z,2.34
2023-01-25T21:49:54.531Z,2.35
2023-01-25T21:52:22.740Z,2.31
2023-01-25T21:54:50.928Z,2.09
2023-01-25T21:57:20.783Z,2.41
2023-01-25T21:59:49.025Z,2.40
2023-01-25T22:02:17.224Z,2.25
2023-01-25T22:04:45.465Z,1.86
2023-01-25T22:07:13.638Z,2.43
2023-01-25T22:09:41.729Z,2.15
2023-01-25T22:12:11.257Z,2.40
2023-01-25T22:14:41.412Z,2.35
2023-01-25T22:17:09.501Z,2.25
2023-01-25T22:19:37.708Z,2.41
2023-01-25T22:22:06.175Z,2.36
2023-01-25T22:24:34.733Z,2.30
2023-01-25T22:27:23.175Z,2.23
2023-01-25T22:29:53.335Z,2.24
2023-01-25T22:32:21.884Z,2.28
2023-01-25T22:34:50.406Z,2.32
2023-01-25T22:37:18.647Z,2.20
2023-01-25T22:39:47.114Z,2.29
2023-01-25T22:42:15.730Z,1.25
2023-01-25T22:44:44.240Z,2.20
2023-01-25T22:47:14.022Z,2.21
2023-01-25T22:49:42.630Z,1.45
2023-01-25T22:52:10.759Z,2.15
2023-01-25T22:54:38.891Z,2.14
2023-01-25T22:57:07.336Z,2.11
2023-01-25T22:59:35.450Z,2.05
2023-01-25T23:02:03.556Z,2.01
2023-01-25T23:04:33.143Z,2.08
2023-01-25T23:07:12.299Z,2.05
2023-01-25T23:09:41.247Z,2.08
2023-01-25T23:12:09.674Z,2.12
2023-01-25T23:14:53.869Z,2.10
2023-01-25T23:17:41.442Z,2.08
2023-01-25T23:20:13.591Z,2.05
2023-01-25T23:22:41.884Z,2.00
2023-01-25T23:25:11.487Z,1.94
2023-01-25T23:27:40.066Z,1.88
2023-01-25T23:30:10.512Z,1.84
2023-01-25T23:32:38.978Z,1.91
2023-01-25T23:35:08.114Z,1.82
2023-01-25T23:37:37.680Z,2.05
2023-01-25T23:40:09.468Z,2.06
2023-01-25T23:42:38.000Z,2.01
2023-01-25T23:45:07.439Z,2.03
2023-01-25T23:47:35.995Z,2.02
2023-01-25T23:50:04.269Z,2.09
2023-01-25T23:52:35.049Z,2.10
2023-01-25T23:55:06.547Z,1.41
2023-01-25T23:57:34.710Z,2.11
